Alder, WA

4:27 AM PDT on August 30, 2014 (GMT -0700)
Triangle Marsh | Change Station
CLOSE
Current Station
Personal Weather Station
Location: Eatonville, WA
Elevation: 757 ft
Nearby Weather Stations

Elev 757 ft 46.86 °N, 122.29 °W | Updated 9 seconds ago

Overcast
Overcast
56.5 °F
Feels Like 56.5 °F
N
0.0
Wind Variable Wind from North
Gusts 4.0 mph

Today
High -- | Low -- °F
--% Chance of Precip.
Yesterday
High -- | Low -- °F
Precip. -- in
6:26 AM 7:52 PM
Waxing Crescent, 21% visible
Pressure 29.94 in
Visibility 10.0 miles
Clouds Overcast 4600 ft
Dew Point 45 °F
Humidity 65%
Rainfall 0.00 in
Snow Depth Not available.
UV 0 out of 12
Pollen 2.60 out of 12
PM2.5 Good
Flu Activity Not available.
METAR KGRF 301058Z AUTO 00000KT 10SM DZ OVC046 16/13 A2993 RMK AO2 SLP138 P0000 T01640128 $

More Conditions Fewer Conditions

Pressure 29.94 in
Visibility 10.0 miles
Clouds Overcast 4600 ft
Dew Point 45 °F
Humidity 65%
Rainfall 0.00 in
Snow Depth Not available.
UV 0 out of 12
Pollen 2.60 out of 12
PM2.5 Good
Flu Activity Not available.
METAR KGRF 301058Z AUTO 00000KT 10SM DZ OVC046 16/13 A2993 RMK AO2 SLP138 P0000 T01640128 $

More Conditions Fewer Conditions

10-Day Weather Forecast

Almanac

Astronomy

Aug. 30, 2014 Rise Set
Actual Time 6:26 AM PDT 7:52 PM PDT
Civil Twilight 5:54 AM PDT 8:23 PM PDT
Nautical Twilight 5:16 AM PDT 9:01 PM PDT
Astronomical Twilight 4:35 AM PDT 9:42 PM PDT
Moon 11:39 AM PDT 10:08 PM PDT
Length of Visible Light 14h 29m
Length of Day
13h 25m
Tomorrow will be 3m 12s shorter.
Waxing Crescent, 21% of the Moon is Illuminated
Today
Waxing Crescent
Sep 2
First Quarter
Sep 8
Full
Sep 15
Last Quarter
Sep 24
New

Today's Extremes

State Highs State Lows

Community

WunderPhotos

Upload Photos

1,748,492 photos uploaded!

WunderBlogs® & News

By Dr. Jeff Masters
Director of Meteorology, Weather Underground
By Kari Strenfel
Meteorologist, Weather Underground
By Christopher C. Burt
Weather Historian, Weather Underground
August 30, 2014
August 30, 2014
August 30, 2014

Nearby

Air Quality

  Air Quality AQ Index Pollutant
Yesterday Good
OZONE
Yesterday Good
PM2.5
Current Good
PM2.5
Saturday Good
OZONE
Saturday Good
PM2.5
Sunday Good
OZONE
Sunday Good
PM2.5
Monday Good
OZONE
Monday Good
PM2.5
Tuesday Good
OZONE
Tuesday Good
PM2.5
Wednesday Good
OZONE
Wednesday Good
PM2.5

Snow Depth

Station Depth Elevation
Burnt Mountain 0 in 4200 ft
Morse Lake 0 in 5400 ft
Lone Pine 0 in 3800 ft
Pigtail Peak 0 in 5900 ft
White Pass E.S. 0 in 4500 ft

Earthquake Activity

City Distance Mag. Time & Date
No recent earthquake activity has been reported nearby.
Minimum magnitude displayed is 2.5.

Coastal Water Temperatures

Place Temperature
Port Townsend, WA 53.1 °F
Seattle, WA 57.0 °F
Friday Harbor, WA 53.1 °F
Tacoma, WA 55.0 °F

Nearby Weather Stations